Aérodrome :
LOGIN :

S'inscrire | Disclaimer

   EN    FR    IT 

 










Légende :    VFR   VFR Marginal   IFR   IFR Intensif   IFR Très Intensif
Visi : 
Plafond : 
>= 8 km
>= 3000ft
5 à 8 km
1000 à 3000 ft
1500m à 5 km
500 à 1000 ft
800 à 1500m
200 à 500 ft
< 800m
< 200 ft
Symboles :   Orages  Brouillard  Fortes neiges  Fortes précipitations  Vent > 20 kt
SIGMETs :   Divers  Orages  Givrage  Turbulence  Onde Orograph.  Cendres Volcan.






- Altitude de l'aérodrome : 242 ft
- Code IATA : DUB


EIDW - Dublin

DERNIER METAR :
  • 280130Z 25012KT 220V280 9999 FEW008 SCT012 01/M01 Q0988 NOSIG

METARs EXPIRÉS :
  • 280100Z 26014KT 230V290 9999 FEW010 SCT014 BKN023 01/M00 Q0987 NOSIG
  • 280030Z 25014KT 220V280 9999 FEW010 SCT014 BKN023 01/M01 Q0987 NOSIG
  • 280000Z 26014G24KT 9999 FEW010 SCT014 BKN023 02/M00 Q0986 NOSIG
  • 272330Z 26015KT 9999 FEW010 SCT014 BKN017 02/00 Q0986 NOSIG
  • 272300Z 26014KT 9999 FEW013 BKN020 02/00 Q0986 NOSIG

TAF TAF EIDW
Valide du 28 à 00h jusqu'au 29 à 00h UTC


272300Z 2800/2824 27016KT 9999 FEW013 BKN022
TEMPO 2800/2802 26017G28KT
PROB30
TEMPO 2800/2801 BKN010
BECMG 2802/2804 24016KT
TEMPO 2804/2806 24017G28KT
PROB30
TEMPO 2804/2810 4000 -SHRASN SCT010 SCT020CB
BECMG 2806/2808 24017G28KT
TEMPO 2808/2818 25020G33KT
PROB40
TEMPO 2810/2824 -SHRA SCT020CB
BECMG 2822/2824 24015KT



MET'MAP, la Météo Aéronautique d'un coup d'oeil ! - Copyright ORBIFLY Décembre 2007 - Disclaimer

ORBIFLY MET'MAP TEAM :

Programmation & Développement : Alexandra Zaïnal
Sur une idée originale de : Baudouin d'Aumeries
Assistance à la programmation : Marc-Olivier Méhu
Soutien technique & logistique : Manuel Goepfert

Contact : metmap@orbifly.com




SOURCES & CREDITS :

   NOAA